This is the latest recevied weather packets stored in our database for station/object 9W2YIE-13. If no packets are shown the sender has not sent any weather packets the latest 10 day(s).
| Time | Temp. | Humidity | Pressure | Rain* | Wind** | Luminosity | Snow |
|---|---|---|---|---|---|---|---|
| 1787417716 | 33.33° C | 54% | 1008 hPa | - | - | 0 W/m² | - |
| 1787416791 | 33.33° C | 54% | 1009 hPa | - | - | 0 W/m² | - |
| 1787415844 | 33.33° C | 53% | 1008 hPa | - | - | 0 W/m² | - |
| 1787414912 | 33.89° C | 52% | 1009 hPa | - | - | 0 W/m² | - |
| 1787413975 | 32.78° C | 54% | 1009 hPa | - | - | 0 W/m² | - |
| 1787413048 | 32.22° C | 56% | 1009 hPa | - | - | 0 W/m² | - |
| 1787412116 | 34.44° C | 51% | 1009 hPa | - | - | 0 W/m² | - |
| 1787411189 | 34.44° C | 50% | 1009 hPa | - | - | 0 W/m² | - |
| 1787410252 | 34.44° C | 50% | 1009 hPa | - | - | 0 W/m² | - |
| 1787409290 | 35° C | 49% | 1009 hPa | - | - | 0 W/m² | - |
| 1787408328 | 32.78° C | 53% | 1009 hPa | - | - | 0 W/m² | - |
| 1787407391 | 33.89° C | 51% | 1008 hPa | - | - | 0 W/m² | - |
| 1787406424 | 33.89° C | 51% | 1008 hPa | - | - | 0 W/m² | - |
| 1787405478 | 33.33° C | 53% | 1008 hPa | - | - | 0 W/m² | - |
| 1787403611 | 34.44° C | 50% | 1008 hPa | - | - | 0 W/m² | - |
| 1787402647 | 35° C | 49% | 1007 hPa | - | - | 0 W/m² | - |
| 1787401711 | 35.56° C | 49% | 1007 hPa | - | - | 0 W/m² | - |
| 1787400775 | 36.11° C | 48% | 1006 hPa | - | - | 0 W/m² | - |
| 1787399840 | 35° C | 50% | 1006 hPa | - | - | 0 W/m² | - |
| 1787398912 | 35° C | 54% | 1007 hPa | - | - | 0 W/m² | - |
| 1787397980 | 32.78° C | 61% | 1006 hPa | - | - | 0 W/m² | - |
| 1787397028 | 41.11° C | 43% | 1005 hPa | - | - | 0 W/m² | - |
| 1787396101 | 40.56° C | 43% | 1005 hPa | - | - | 0 W/m² | - |
| 1787395173 | 40.56° C | 43% | 1004 hPa | - | - | 0 W/m² | - |
| 1787394231 | 41.11° C | 42% | 1004 hPa | - | - | 0 W/m² | - |
* Rain since midnight (hover to see other rain measurements)
** Current wind speed in m/s (hover to see current wind gust speed)